Time;durP1;ratioP1;P1;durP2;ratioP2;P2;SDS_P1;SDS_P2;PMS_P1;PMS_P2;Temp;Humidity;BMP_temperature;BMP_pressure;BME280_temperature;BME280_humidity;BME280_pressure;Samples;Min_cycle;Max_cycle;Signal;HPM_P1;HPM_P2
2022/05/07 00:00:27;;;;;;;8.27;4.88;;;12.70;99.90;;;;;;4981731;28;20181;-84
2022/05/07 00:02:53;;;;;;;9.27;5.93;;;12.70;99.90;;;;;;5015248;28;20217;-85
2022/05/07 00:05:19;;;;;;;6.50;4.63;;;12.70;99.90;;;;;;5015413;28;20224;-84
2022/05/07 00:07:45;;;;;;;7.13;4.90;;;12.80;99.90;;;;;;5015430;28;20188;-84
2022/05/07 00:10:11;;;;;;;7.35;4.32;;;12.80;99.90;;;;;;5015134;28;20586;-84
2022/05/07 00:12:37;;;;;;;12.10;5.47;;;12.80;99.90;;;;;;4997697;28;20240;-85
2022/05/07 00:15:03;;;;;;;8.57;5.03;;;12.80;99.90;;;;;;4997611;28;20174;-85
2022/05/07 00:20:12;;;;;;;9.63;4.63;;;12.80;99.90;;;;;;5014952;28;20264;-84
2022/05/07 00:22:38;;;;;;;7.05;4.38;;;12.70;99.90;;;;;;5015093;28;20256;-84
2022/05/07 00:25:04;;;;;;;8.35;4.70;;;12.70;99.90;;;;;;4981114;28;20201;-84
2022/05/07 00:27:29;;;;;;;11.82;5.35;;;12.60;99.90;;;;;;5015118;28;20634;-85
2022/05/07 00:29:55;;;;;;;9.18;5.53;;;12.60;99.90;;;;;;5014790;28;20173;-85
2022/05/07 00:32:21;;;;;;;7.47;4.45;;;12.60;99.90;;;;;;4997273;28;20177;-85
2022/05/07 00:34:46;;;;;;;7.55;4.68;;;12.60;99.90;;;;;;4997661;28;20185;-84
2022/05/07 00:37:12;;;;;;;8.18;4.88;;;12.60;99.90;;;;;;5014566;28;20514;-84
2022/05/07 00:39:37;;;;;;;7.78;4.80;;;12.60;99.90;;;;;;4997730;28;20177;-85
2022/05/07 00:42:07;;;;;;;9.15;5.32;;;12.60;99.90;;;;;;4997065;28;20235;-85
2022/05/07 00:44:33;;;;;;;8.27;5.10;;;12.50;99.90;;;;;;4997240;28;20181;-85
2022/05/07 00:47:14;;;;;;;8.63;4.72;;;12.50;99.90;;;;;;5014098;28;20635;-85
2022/05/07 00:49:56;;;;;;;8.88;4.93;;;12.50;99.90;;;;;;4997018;28;20176;-85
2022/05/07 00:52:23;;;;;;;7.55;5.00;;;12.40;99.90;;;;;;5014164;28;20227;-85
2022/05/07 00:54:49;;;;;;;7.47;4.60;;;12.30;99.90;;;;;;5014202;28;20208;-85
2022/05/07 00:57:15;;;;;;;10.55;5.13;;;12.20;99.90;;;;;;5013925;28;20229;-84
2022/05/07 00:59:42;;;;;;;6.90;4.55;;;12.20;99.90;;;;;;5014476;28;20219;-85
2022/05/07 01:02:08;;;;;;;9.93;5.22;;;12.10;99.90;;;;;;5014108;28;20184;-85
2022/05/07 01:04:35;;;;;;;8.75;5.03;;;12.00;99.90;;;;;;4996644;28;20539;-84
2022/05/07 01:07:02;;;;;;;19.98;5.32;;;11.90;99.90;;;;;;5013758;28;20193;-85
2022/05/07 01:09:28;;;;;;;9.77;4.80;;;11.90;99.90;;;;;;4996722;28;20532;-85
2022/05/07 01:11:55;;;;;;;10.88;5.10;;;11.80;99.90;;;;;;5013908;28;20184;-85
2022/05/07 01:14:20;;;;;;;7.38;4.47;;;11.70;99.90;;;;;;5014152;28;20256;-85
2022/05/07 01:16:46;;;;;;;8.07;4.53;;;11.60;99.90;;;;;;4980498;28;20276;-85
2022/05/07 01:19:12;;;;;;;9.10;5.20;;;11.60;99.90;;;;;;5013681;28;20197;-84
2022/05/07 01:21:38;;;;;;;10.02;5.53;;;;;;;;;;5014310;28;20208;-84
2022/05/07 01:24:04;;;;;;;8.70;5.32;;;11.50;99.90;;;;;;5013707;28;20257;-84
2022/05/07 01:26:29;;;;;;;8.70;5.15;;;11.50;99.90;;;;;;5014247;28;20212;-84
2022/05/07 01:29:07;;;;;;;10.07;4.70;;;11.40;99.90;;;;;;4996558;28;20212;-84
2022/05/07 01:31:32;;;;;;;8.05;5.18;;;11.30;99.90;;;;;;5014121;28;20511;-84
2022/05/07 01:33:58;;;;;;;11.30;4.65;;;;;;;;;;5013801;28;20196;-84
2022/05/07 01:36:24;;;;;;;7.95;5.15;;;11.30;99.90;;;;;;5013495;28;20180;-83
2022/05/07 01:38:50;;;;;;;9.25;5.68;;;11.20;99.90;;;;;;4996093;28;20572;-83
2022/05/07 01:41:16;;;;;;;9.32;5.40;;;11.20;99.90;;;;;;5013413;28;20226;-83
2022/05/07 01:43:41;;;;;;;8.98;5.00;;;11.20;99.90;;;;;;5013681;28;20186;-85
2022/05/07 01:48:09;;;;;;;9.82;5.25;;;11.10;99.90;;;;;;4979633;28;20185;-83
2022/05/07 01:48:53;;;;;;;6.30;4.63;;;11.00;99.90;;;;;;4998734;28;20646;-83
2022/05/07 01:51:18;;;;;;;9.63;5.07;;;11.00;99.90;;;;;;5013578;28;20177;-84
2022/05/07 01:53:44;;;;;;;12.27;5.93;;;10.90;99.90;;;;;;5013639;28;20188;-83
2022/05/07 01:56:09;;;;;;;12.40;5.90;;;10.90;99.90;;;;;;5013381;28;20189;-84
2022/05/07 01:58:35;;;;;;;7.43;5.10;;;10.80;99.90;;;;;;4995583;28;20248;-83
2022/05/07 02:01:01;;;;;;;8.30;5.55;;;10.80;99.90;;;;;;5013432;28;20673;-83
2022/05/07 02:03:26;;;;;;;11.07;5.65;;;10.70;99.90;;;;;;4995432;28;20741;-83
2022/05/07 02:05:52;;;;;;;10.32;5.20;;;10.60;99.90;;;;;;4995932;28;20173;-83
2022/05/07 02:08:17;;;;;;;10.82;4.88;;;10.60;99.90;;;;;;5012852;28;20247;-83
2022/05/07 02:10:43;;;;;;;10.32;5.35;;;10.60;99.90;;;;;;4979644;28;20235;-83
2022/05/07 02:13:09;;;;;;;10.05;5.35;;;10.50;99.90;;;;;;5013109;28;20177;-83
2022/05/07 02:15:35;;;;;;;8.40;6.15;;;10.40;99.90;;;;;;5013663;28;20177;-83
2022/05/07 02:18:01;;;;;;;7.70;5.38;;;10.40;99.90;;;;;;4995550;28;20555;-83
2022/05/07 02:20:27;;;;;;;7.47;5.07;;;;;;;;;;4995549;28;20232;-83
2022/05/07 02:22:55;;;;;;;8.98;6.07;;;10.30;99.90;;;;;;4995844;28;20630;-83
2022/05/07 02:25:24;;;;;;;10.02;5.05;;;10.30;99.90;;;;;;5012613;28;20181;-84
2022/05/07 02:27:50;;;;;;;8.75;5.45;;;10.20;99.90;;;;;;5013258;28;20185;-83
2022/05/07 02:30:19;;;;;;;8.30;5.63;;;10.20;99.90;;;;;;4995333;28;20181;-84
2022/05/07 02:32:46;;;;;;;6.75;4.68;;;10.20;99.90;;;;;;5013245;28;20178;-83
2022/05/07 02:35:12;;;;;;;8.60;5.30;;;10.20;99.90;;;;;;4979123;28;20181;-83
2022/05/07 02:37:38;;;;;;;10.20;5.15;;;;;;;;;;4995632;28;20629;-83
2022/05/07 02:40:04;;;;;;;8.85;6.15;;;10.00;99.90;;;;;;4995479;28;20200;-84
2022/05/07 02:42:36;;;;;;;11.70;5.40;;;9.90;99.90;;;;;;4995123;28;20192;-83
2022/05/07 02:45:04;;;;;;;11.57;6.35;;;10.20;99.90;;;;;;5013128;28;20176;-83
2022/05/07 02:47:29;;;;;;;9.45;5.05;;;9.90;99.90;;;;;;5012662;28;20661;-84
2022/05/07 02:49:55;;;;;;;8.95;5.38;;;10.00;99.90;;;;;;5013014;28;20181;-84
2022/05/07 02:52:21;;;;;;;8.15;5.43;;;10.00;99.90;;;;;;5012659;28;20704;-84
2022/05/07 02:54:47;;;;;;;10.87;5.57;;;9.90;99.90;;;;;;4995354;28;20182;-84
2022/05/07 02:57:12;;;;;;;12.27;5.28;;;9.90;99.90;;;;;;4994800;28;20229;-85
2022/05/07 02:59:38;;;;;;;9.60;6.75;;;9.90;99.90;;;;;;4995559;28;20204;-84
2022/05/07 03:02:05;;;;;;;8.90;6.15;;;;;;;;;;5013250;28;20185;-84
2022/05/07 03:04:30;;;;;;;12.27;6.35;;;9.80;99.90;;;;;;4995008;28;20949;-83
2022/05/07 03:06:56;;;;;;;9.00;5.93;;;9.80;99.90;;;;;;5012610;28;20196;-83
2022/05/07 03:09:21;;;;;;;9.65;5.57;;;9.80;99.90;;;;;;4994597;28;20272;-83
2022/05/07 03:11:49;;;;;;;9.50;6.63;;;9.80;99.90;;;;;;4994953;28;20193;-83
2022/05/07 03:14:15;;;;;;;11.75;6.38;;;9.80;99.90;;;;;;4994234;28;20197;-84
2022/05/07 03:16:41;;;;;;;7.85;6.05;;;9.70;99.90;;;;;;4998120;28;20720;-83
2022/05/07 03:19:07;;;;;;;15.07;6.20;;;9.70;99.90;;;;;;4998306;28;20193;-87
2022/05/07 03:21:34;;;;;;;9.45;5.80;;;9.70;99.90;;;;;;4997832;28;20197;-85
2022/05/07 03:24:00;;;;;;;9.75;5.07;;;9.70;99.90;;;;;;5015866;28;20263;-85
2022/05/07 03:26:25;;;;;;;12.60;7.10;;;9.70;99.90;;;;;;5015821;28;20641;-84
2022/05/07 03:28:51;;;;;;;12.43;7.00;;;9.70;99.90;;;;;;4998219;28;20267;-84
2022/05/07 03:31:19;;;;;;;16.05;7.47;;;9.70;99.90;;;;;;5016134;28;20185;-85
2022/05/07 03:33:48;;;;;;;13.50;6.70;;;9.70;99.90;;;;;;5015224;28;20550;-84
2022/05/07 03:36:19;;;;;;;10.50;6.20;;;9.70;99.90;;;;;;4996117;28;20185;-85
2022/05/07 03:38:45;;;;;;;12.13;6.93;;;9.70;99.90;;;;;;4997991;28;20586;-84
2022/05/07 03:41:11;;;;;;;11.05;6.55;;;9.80;99.90;;;;;;5015601;28;20196;-84
2022/05/07 03:43:37;;;;;;;15.95;6.90;;;9.80;99.90;;;;;;5013521;28;20267;-85
2022/05/07 03:46:05;;;;;;;10.90;5.90;;;9.80;99.90;;;;;;5013419;28;20653;-84
2022/05/07 03:48:31;;;;;;;10.27;5.90;;;9.80;99.90;;;;;;4980219;28;20185;-84
2022/05/07 03:50:57;;;;;;;11.05;6.43;;;;;;;;;;4995929;28;20181;-84
2022/05/07 03:53:32;;;;;;;13.48;6.50;;;9.90;99.90;;;;;;5013903;28;20259;-84
2022/05/07 03:55:58;;;;;;;12.37;6.60;;;10.00;99.90;;;;;;4995432;28;20243;-84
2022/05/07 03:58:25;;;;;;;12.00;7.37;;;10.00;99.90;;;;;;5013425;28;20260;-84
2022/05/07 04:00:54;;;;;;;15.10;7.73;;;10.10;99.90;;;;;;5014076;28;20185;-84
2022/05/07 04:03:21;;;;;;;13.70;8.05;;;10.20;99.90;;;;;;4995788;28;20185;-83
2022/05/07 04:05:47;;;;;;;13.18;8.07;;;10.10;99.90;;;;;;5013279;28;20178;-85
2022/05/07 04:08:13;;;;;;;18.48;8.27;;;;;;;;;;5013660;28;20255;-84
2022/05/07 04:10:38;;;;;;;13.32;7.93;;;10.70;99.90;;;;;;5014834;28;20191;-84
2022/05/07 04:13:04;;;;;;;17.13;9.85;;;10.90;99.90;;;;;;5014945;28;20177;-85
2022/05/07 04:15:30;;;;;;;16.98;7.90;;;10.50;99.90;;;;;;4997489;28;20177;-85
2022/05/07 04:17:56;;;;;;;15.57;8.52;;;10.90;99.90;;;;;;5015323;28;20684;-85
2022/05/07 04:20:21;;;;;;;14.57;8.70;;;10.90;99.90;;;;;;4997097;28;20205;-85
2022/05/07 04:22:47;;;;;;;15.77;8.13;;;11.40;99.90;;;;;;5015622;28;20192;-84
2022/05/07 04:25:13;;;;;;;12.80;7.43;;;11.20;99.90;;;;;;4980616;28;20186;-84
2022/05/07 04:27:39;;;;;;;15.00;9.32;;;11.60;99.90;;;;;;4996442;28;20630;-84
2022/05/07 04:30:06;;;;;;;14.98;9.23;;;11.50;99.90;;;;;;5014733;28;20266;-84
2022/05/07 04:32:32;;;;;;;11.77;7.55;;;11.60;99.90;;;;;;4996802;28;20193;-84
2022/05/07 04:34:59;;;;;;;15.13;9.40;;;11.70;99.90;;;;;;4995597;28;20346;-84
2022/05/07 04:37:25;;;;;;;13.98;8.23;;;11.60;99.90;;;;;;4980962;28;20702;-84
2022/05/07 04:39:51;;;;;;;15.43;8.93;;;11.90;99.90;;;;;;5013187;28;20188;-85
2022/05/07 04:42:18;;;;;;;17.30;8.65;;;11.90;99.90;;;;;;5013043;28;20476;-85
2022/05/07 04:44:43;;;;;;;14.20;8.35;;;11.90;99.90;;;;;;4994600;28;20525;-85
2022/05/07 04:47:09;;;;;;;16.23;8.98;;;11.90;99.90;;;;;;5012849;28;20181;-86
2022/05/07 04:49:36;;;;;;;15.13;8.57;;;12.00;99.90;;;;;;5012833;28;20189;-86
2022/05/07 04:52:05;;;;;;;15.43;10.55;;;12.10;99.90;;;;;;5013540;28;20192;-86
2022/05/07 04:54:32;;;;;;;18.17;10.10;;;12.30;99.90;;;;;;5008500;28;20189;-85
2022/05/07 04:56:58;;;;;;;19.25;10.65;;;12.30;99.90;;;;;;4993335;28;20238;-84
2022/05/07 04:59:24;;;;;;;17.55;9.43;;;12.10;99.90;;;;;;4993395;28;20217;-84
2022/05/07 05:01:50;;;;;;;14.77;9.15;;;;;;;;;;4980365;28;20547;-85
2022/05/07 05:04:16;;;;;;;16.40;9.57;;;12.30;99.90;;;;;;4977405;28;20219;-84
2022/05/07 05:06:42;;;;;;;15.82;9.50;;;12.20;99.90;;;;;;5006477;28;20188;-84
2022/05/07 05:09:09;;;;;;;16.90;9.95;;;12.90;99.90;;;;;;5004675;28;20189;-84
2022/05/07 05:11:35;;;;;;;23.77;10.75;;;12.40;99.90;;;;;;4977706;28;20276;-85
2022/05/07 05:15:01;;;;;;;19.10;10.52;;;12.50;99.90;;;;;;5004318;28;20192;-82
2022/05/07 05:16:47;;;;;;;14.48;9.13;;;12.60;99.90;;;;;;5000185;28;20201;-85
2022/05/07 05:19:12;;;;;;;17.58;10.35;;;12.60;99.90;;;;;;4993208;28;20224;-84
2022/05/07 05:21:38;;;;;;;20.60;11.70;;;12.70;99.90;;;;;;4976389;28;20201;-84
2022/05/07 05:24:04;;;;;;;21.48;12.50;;;13.20;99.90;;;;;;4977537;28;20186;-83
2022/05/07 05:26:29;;;;;;;22.40;12.00;;;13.00;99.90;;;;;;4977332;28;20182;-84
2022/05/07 05:28:55;;;;;;;23.52;12.32;;;13.00;99.90;;;;;;4977942;28;20239;-84
2022/05/07 05:31:23;;;;;;;22.45;13.30;;;13.40;99.90;;;;;;4996499;28;20216;-85
2022/05/07 05:33:49;;;;;;;19.67;11.52;;;13.20;99.90;;;;;;4962420;28;20182;-84
2022/05/07 05:36:14;;;;;;;27.67;13.18;;;13.20;99.90;;;;;;4975778;28;20195;-85
2022/05/07 05:38:40;;;;;;;18.30;11.75;;;13.30;99.90;;;;;;4992730;28;20568;-84
2022/05/07 05:41:06;;;;;;;23.90;13.35;;;13.50;99.90;;;;;;4979485;28;20610;-84
2022/05/07 05:43:32;;;;;;;23.88;12.85;;;13.50;99.90;;;;;;4995527;28;20197;-84
2022/05/07 05:45:58;;;;;;;20.95;13.13;;;13.60;99.90;;;;;;4995440;28;20259;-85
2022/05/07 05:48:28;;;;;;;25.42;12.38;;;13.90;99.90;;;;;;4996986;28;20677;-86
2022/05/07 05:50:54;;;;;;;21.63;12.82;;;13.90;99.90;;;;;;4999367;28;20264;-85
2022/05/07 05:53:20;;;;;;;21.13;11.52;;;14.20;99.90;;;;;;4982911;28;20528;-85
2022/05/07 05:55:49;;;;;;;19.77;11.95;;;;;;;;;;5004300;28;20693;-85
2022/05/07 05:58:15;;;;;;;20.50;11.85;;;14.00;99.90;;;;;;5005754;28;20227;-83
2022/05/07 06:00:41;;;;;;;20.38;12.40;;;;;;;;;;4988109;28;20933;-82
2022/05/07 06:03:07;;;;;;;22.02;13.02;;;14.70;99.90;;;;;;5006068;28;20254;-84
2022/05/07 06:05:33;;;;;;;20.75;12.18;;;;;;;;;;4987802;28;20638;-84
2022/05/07 06:07:59;;;;;;;24.00;12.13;;;14.40;99.90;;;;;;5008586;28;20245;-84
2022/05/07 06:10:25;;;;;;;23.83;13.82;;;14.60;99.90;;;;;;5005741;28;20183;-84
2022/05/07 06:12:52;;;;;;;20.50;12.65;;;;;;;;;;4972142;28;20181;-83
2022/05/07 06:15:18;;;;;;;23.27;12.95;;;;;;;;;;5005632;28;20205;-83
2022/05/07 06:17:44;;;;;;;22.73;12.00;;;;;;;;;;5009346;28;20245;-82
2022/05/07 06:20:10;;;;;;;22.75;13.90;;;15.20;99.90;;;;;;5010746;28;20642;-84
2022/05/07 06:22:36;;;;;;;25.25;12.65;;;14.80;99.90;;;;;;4993353;28;20179;-83
2022/05/07 06:27:46;;;;;;;21.75;12.98;;;14.60;99.90;;;;;;5012457;28;20187;-83
2022/05/07 06:30:12;;;;;;;16.85;11.15;;;14.90;99.90;;;;;;4994873;28;20189;-83
2022/05/07 06:32:40;;;;;;;23.05;11.13;;;15.00;99.90;;;;;;5012260;28;20289;-84
2022/05/07 06:35:08;;;;;;;18.92;9.88;;;15.00;99.90;;;;;;5012507;28;20187;-84
2022/05/07 06:37:35;;;;;;;14.52;8.60;;;15.20;99.90;;;;;;5011782;28;20203;-84
2022/05/07 06:40:03;;;;;;;19.63;9.65;;;15.40;99.90;;;;;;5012209;28;20208;-83
2022/05/07 06:42:28;;;;;;;18.85;10.88;;;15.60;99.90;;;;;;4994539;28;20177;-85
2022/05/07 06:44:54;;;;;;;12.90;8.68;;;15.70;99.90;;;;;;5012384;28;20177;-85
2022/05/07 06:47:20;;;;;;;16.27;9.68;;;15.70;99.90;;;;;;4994765;28;20235;-86
2022/05/07 06:49:46;;;;;;;18.05;9.23;;;;;;;;;;5013845;28;20309;-86
2022/05/07 06:52:12;;;;;;;16.38;9.60;;;15.80;99.90;;;;;;5016209;28;20181;-87
2022/05/07 06:54:38;;;;;;;18.45;9.30;;;15.90;99.90;;;;;;4998315;28;20181;-86
2022/05/07 06:57:04;;;;;;;13.68;8.60;;;15.90;99.90;;;;;;5016006;28;20261;-86
2022/05/07 06:59:30;;;;;;;14.63;9.02;;;15.90;99.90;;;;;;4998509;28;20209;-84
2022/05/07 07:01:57;;;;;;;15.25;8.93;;;16.00;99.90;;;;;;4998821;28;20192;-85
2022/05/07 07:04:26;;;;;;;15.82;10.45;;;16.20;99.90;;;;;;4998607;28;20287;-85
2022/05/07 07:06:52;;;;;;;13.65;8.82;;;16.20;99.90;;;;;;4998013;28;20189;-85
2022/05/07 07:09:18;;;;;;;13.63;8.77;;;16.30;99.90;;;;;;4997781;28;20697;-83
2022/05/07 07:11:44;;;;;;;15.82;8.77;;;16.30;99.90;;;;;;4990163;28;20665;-85
2022/05/07 07:14:10;;;;;;;12.55;7.57;;;16.40;99.90;;;;;;4997997;28;20173;-86
2022/05/07 07:16:36;;;;;;;14.82;7.47;;;16.50;99.90;;;;;;5015450;28;20626;-85
2022/05/07 07:19:02;;;;;;;12.15;7.43;;;16.60;99.90;;;;;;4997722;28;20209;-85
2022/05/07 07:21:27;;;;;;;11.80;7.38;;;16.80;99.90;;;;;;5012791;28;20182;-85
2022/05/07 07:23:53;;;;;;;13.27;8.50;;;16.90;99.90;;;;;;4997581;28;20730;-84
2022/05/07 07:26:19;;;;;;;12.85;7.75;;;16.80;99.90;;;;;;4997474;28;20657;-85
2022/05/07 07:28:46;;;;;;;18.02;7.93;;;16.70;99.90;;;;;;4997456;28;20188;-84
2022/05/07 07:31:11;;;;;;;13.32;7.60;;;16.80;99.90;;;;;;4997860;28;20181;-85
2022/05/07 07:33:38;;;;;;;12.70;7.45;;;16.80;99.90;;;;;;4998464;28;20181;-85
2022/05/07 07:36:05;;;;;;;10.52;6.80;;;17.00;99.90;;;;;;4982217;28;20178;-83
2022/05/07 07:38:30;;;;;;;14.60;7.35;;;17.10;99.90;;;;;;4997280;28;20300;-85
2022/05/07 07:40:56;;;;;;;15.30;6.60;;;17.20;99.90;;;;;;4996571;28;20589;-85
2022/05/07 07:43:22;;;;;;;13.32;6.00;;;17.30;99.90;;;;;;5015020;28;20548;-86
2022/05/07 07:48:32;;;;;;;9.32;6.10;;;17.00;99.90;;;;;;5013357;28;20712;-82
2022/05/07 07:50:58;;;;;;;9.40;5.45;;;17.10;99.90;;;;;;5014567;28;20185;-82
2022/05/07 07:53:24;;;;;;;11.98;6.53;;;17.30;99.90;;;;;;4994491;28;20173;-81
2022/05/07 07:55:51;;;;;;;8.48;4.95;;;17.30;99.90;;;;;;5011044;28;20231;-84
2022/05/07 07:58:17;;;;;;;8.35;5.28;;;17.20;99.90;;;;;;5015459;28;20227;-85
2022/05/07 08:00:44;;;;;;;7.95;4.72;;;17.00;99.90;;;;;;5014107;28;20181;-85
2022/05/07 08:03:12;;;;;;;6.13;4.40;;;16.90;99.90;;;;;;5014648;28;20192;-83
2022/05/07 08:05:39;;;;;;;8.30;4.43;;;17.00;99.90;;;;;;5014420;28;20566;-85
2022/05/07 08:13:37;;;;;;;6.55;4.82;;;16.90;99.90;;;;;;5014200;28;20348;-87
2022/05/07 08:16:03;;;;;;;5.07;3.13;;;16.80;99.90;;;;;;5016300;28;20177;-84
2022/05/07 08:18:30;;;;;;;5.70;3.13;;;17.00;99.90;;;;;;4998922;28;20304;-84
2022/05/07 08:20:56;;;;;;;4.72;3.33;;;17.30;99.90;;;;;;4965695;28;20182;-83
2022/05/07 08:23:22;;;;;;;6.65;3.92;;;17.70;99.90;;;;;;4997023;28;20221;-85
2022/05/07 08:25:49;;;;;;;4.57;3.38;;;18.00;97.60;;;;;;4997703;28;20645;-83
2022/05/07 08:28:18;;;;;;;4.32;3.13;;;17.90;96.90;;;;;;5018016;28;20177;-82
2022/05/07 08:30:44;;;;;;;3.70;3.10;;;18.00;96.70;;;;;;5002414;28;20177;-83
2022/05/07 08:33:10;;;;;;;6.45;3.60;;;18.20;93.50;;;;;;5016411;28;20188;-83
2022/05/07 08:35:36;;;;;;;3.92;2.58;;;18.10;92.30;;;;;;5014767;28;20181;-83
2022/05/07 08:38:02;;;;;;;4.57;2.95;;;;;;;;;;5013306;28;20253;-83
2022/05/07 08:40:28;;;;;;;1.60;1.50;;;18.40;86.70;;;;;;5014618;28;20180;-83
2022/05/07 08:42:55;;;;;;;3.25;2.15;;;18.40;81.20;;;;;;4980334;28;20635;-84
2022/05/07 08:45:21;;;;;;;4.45;3.42;;;18.50;83.90;;;;;;4981424;28;20177;-84
2022/05/07 08:47:51;;;;;;;4.95;2.90;;;18.60;86.10;;;;;;5014211;28;20196;-84
2022/05/07 08:50:17;;;;;;;3.33;2.58;;;18.50;86.90;;;;;;4980539;28;20185;-83
2022/05/07 08:52:44;;;;;;;4.95;2.83;;;18.00;84.20;;;;;;4995636;28;20178;-83
2022/05/07 08:55:14;;;;;;;5.63;3.30;;;18.00;85.00;;;;;;4996683;28;20188;-85
2022/05/07 08:57:41;;;;;;;2.45;1.67;;;17.90;84.30;;;;;;4995590;28;20236;-84
2022/05/07 09:00:08;;;;;;;2.03;1.10;;;17.90;76.40;;;;;;5010680;28;20181;-84
2022/05/07 09:02:39;;;;;;;1.80;1.05;;;18.00;72.20;;;;;;5014660;28;20256;-85
2022/05/07 09:05:05;;;;;;;2.28;2.03;;;18.30;72.80;;;;;;5013436;28;20721;-87
2022/05/07 09:07:31;;;;;;;2.60;1.70;;;18.40;72.70;;;;;;4978396;28;20646;-85
2022/05/07 09:09:57;;;;;;;3.50;2.00;;;18.40;73.50;;;;;;4994964;28;20196;-84
2022/05/07 09:12:28;;;;;;;3.38;2.53;;;18.60;77.10;;;;;;5013335;28;20252;-84
2022/05/07 09:15:05;;;;;;;3.83;2.83;;;18.50;77.80;;;;;;4996180;28;20538;-84
2022/05/07 09:17:30;;;;;;;6.00;2.55;;;18.60;81.70;;;;;;4995743;28;20557;-85
2022/05/07 09:19:56;;;;;;;3.60;2.55;;;19.10;80.80;;;;;;5013466;28;20264;-84
2022/05/07 09:22:22;;;;;;;4.18;2.97;;;19.40;76.90;;;;;;5012911;28;20177;-88
2022/05/07 09:24:55;;;;;;;2.58;2.15;;;19.50;77.30;;;;;;5013419;28;20243;-87
2022/05/07 09:27:24;;;;;;;2.47;2.03;;;19.30;75.20;;;;;;5013356;28;20757;-87
2022/05/07 09:30:03;;;;;;;3.95;2.40;;;19.10;75.00;;;;;;5013509;28;20188;-86
2022/05/07 09:32:36;;;;;;;2.45;1.90;;;18.50;76.30;;;;;;5014039;28;20181;-85
2022/05/07 09:38:01;;;;;;;3.55;2.33;;;18.10;78.20;;;;;;5013652;28;20279;-86
2022/05/07 09:40:27;;;;;;;5.28;2.72;;;18.30;78.70;;;;;;5014225;28;20177;-86
2022/05/07 09:42:57;;;;;;;4.38;3.28;;;18.30;79.50;;;;;;5013239;28;20264;-85
2022/05/07 09:45:30;;;;;;;4.47;2.78;;;18.40;79.70;;;;;;4996600;28;20231;-86
2022/05/07 09:47:57;;;;;;;4.18;2.33;;;18.50;76.60;;;;;;4996034;28;20185;-86
2022/05/07 09:50:24;;;;;;;3.80;2.20;;;18.80;76.40;;;;;;4996079;28;20268;-85
2022/05/07 09:58:30;;;;;;;3.67;2.30;;;19.50;74.60;;;;;;4999298;28;20251;-83
2022/05/07 10:01:07;;;;;;;4.63;2.55;;;19.40;72.40;;;;;;4995926;28;20184;-84
2022/05/07 10:03:53;;;;;;;3.85;2.35;;;19.20;73.80;;;;;;4995770;28;20191;-85
2022/05/07 10:06:49;;;;;;;3.38;2.17;;;19.30;72.80;;;;;;5013157;28;20760;-84
2022/05/07 10:09:24;;;;;;;3.65;2.65;;;19.50;75.70;;;;;;5012329;28;20177;-85
2022/05/07 10:11:56;;;;;;;3.03;2.00;;;20.00;74.10;;;;;;5013259;28;20657;-86
2022/05/07 10:14:30;;;;;;;3.95;2.97;;;19.90;72.10;;;;;;5013416;28;20239;-85
2022/05/07 10:17:00;;;;;;;4.20;2.47;;;19.60;73.60;;;;;;5013630;28;20177;-84
2022/05/07 10:19:36;;;;;;;4.22;3.20;;;19.20;74.30;;;;;;4994946;28;20259;-84
2022/05/07 10:22:03;;;;;;;4.18;2.50;;;19.10;73.40;;;;;;4994819;28;20176;-83
2022/05/07 10:24:29;;;;;;;3.35;2.10;;;19.00;70.90;;;;;;4998658;28;20250;-83
2022/05/07 10:26:56;;;;;;;3.92;2.38;;;19.00;72.60;;;;;;4999329;28;20267;-84
2022/05/07 10:29:26;;;;;;;3.38;2.00;;;18.90;71.10;;;;;;5017696;28;20188;-84
2022/05/07 10:32:03;;;;;;;4.15;2.80;;;19.20;73.00;;;;;;5014445;28;20172;-84
2022/05/07 10:34:29;;;;;;;4.60;2.15;;;;;;;;;;4999620;28;20703;-84
2022/05/07 10:37:27;;;;;;;6.72;2.97;;;20.00;71.00;;;;;;5017169;28;20177;-85
2022/05/07 10:39:53;;;;;;;6.15;3.75;;;;;;;;;;5016512;28;20196;-85
2022/05/07 10:42:21;;;;;;;3.63;2.72;;;20.50;67.70;;;;;;5017587;28;20188;-84
2022/05/07 10:44:48;;;;;;;5.68;3.17;;;20.40;68.60;;;;;;5017372;28;20180;-85
2022/05/07 10:47:20;;;;;;;6.32;2.40;;;20.30;68.60;;;;;;5000648;28;20176;-86
2022/05/07 10:50:13;;;;;;;3.63;2.97;;;20.60;67.00;;;;;;4985343;28;20601;-88
2022/05/07 10:52:38;;;;;;;3.85;2.75;;;20.90;65.20;;;;;;5017554;28;20256;-87
2022/05/07 10:55:04;;;;;;;4.95;2.30;;;20.90;67.10;;;;;;5000396;28;20205;-86
2022/05/07 10:57:46;;;;;;;3.78;2.58;;;21.20;66.30;;;;;;4999259;28;20236;-86
2022/05/07 11:00:22;;;;;;;5.55;2.33;;;21.50;66.20;;;;;;5017828;28;20239;-85
2022/05/07 11:02:50;;;;;;;5.07;3.60;;;21.20;62.90;;;;;;5017074;28;20177;-85
2022/05/07 11:05:16;;;;;;;5.35;3.60;;;20.90;61.90;;;;;;5017369;28;20173;-86
2022/05/07 11:07:43;;;;;;;7.28;3.10;;;19.70;63.50;;;;;;5016993;28;20177;-85
2022/05/07 11:10:12;;;;;;;5.57;3.30;;;19.70;64.20;;;;;;4999202;28;20540;-83
2022/05/07 11:12:39;;;;;;;5.53;3.78;;;19.80;64.40;;;;;;5016910;28;20188;-84
2022/05/07 11:15:06;;;;;;;4.47;2.75;;;20.00;68.50;;;;;;4999164;28;20181;-88
2022/05/07 11:17:35;;;;;;;9.48;4.28;;;20.00;69.90;;;;;;4982762;28;20192;-85
2022/05/07 11:20:02;;;;;;;6.65;4.35;;;19.80;71.00;;;;;;4998730;28;20268;-86
2022/05/07 11:22:31;;;;;;;6.05;4.20;;;19.60;71.10;;;;;;5016971;28;20227;-85
2022/05/07 11:25:01;;;;;;;4.28;3.17;;;19.60;71.70;;;;;;5020389;28;20178;-83
2022/05/07 11:27:32;;;;;;;5.55;3.03;;;19.50;72.50;;;;;;4999017;28;20209;-85
2022/05/07 11:30:13;;;;;;;4.05;2.67;;;19.60;71.90;;;;;;5016795;28;20224;-83
2022/05/07 11:32:40;;;;;;;4.93;3.13;;;20.00;72.00;;;;;;5016371;28;20673;-84
2022/05/07 11:35:07;;;;;;;10.38;5.15;;;20.50;72.90;;;;;;4998305;28;20576;-84
2022/05/07 11:37:41;;;;;;;9.60;5.55;;;20.90;63.70;;;;;;4982585;28;20189;-83
2022/05/07 11:40:08;;;;;;;8.45;5.05;;;20.90;64.00;;;;;;5015875;28;20594;-83
2022/05/07 11:45:25;;;;;;;11.00;8.38;;;21.00;65.40;;;;;;5016004;28;20173;-83
2022/05/07 11:45:41;;;;;;;11.05;6.45;;;20.90;64.60;;;;;;5004761;28;20272;-83
2022/05/07 11:48:14;;;;;;;31.25;19.48;;;20.70;63.20;;;;;;5016496;28;20272;-84
2022/05/07 11:50:59;;;;;;;25.98;17.15;;;20.70;62.60;;;;;;4984212;28;20185;-85
2022/05/07 11:53:35;;;;;;;10.00;6.57;;;20.50;62.50;;;;;;4998377;28;20212;-85
2022/05/07 11:56:06;;;;;;;10.80;6.63;;;20.50;60.00;;;;;;5015966;28;20177;-85
2022/05/07 11:58:40;;;;;;;12.07;6.20;;;20.40;61.30;;;;;;5016025;28;20291;-84
2022/05/07 12:01:20;;;;;;;8.52;5.80;;;20.90;61.90;;;;;;5015817;28;20157;-84
2022/05/07 12:03:46;;;;;;;8.95;5.82;;;20.60;62.70;;;;;;5016350;28;20205;-83
2022/05/07 12:06:23;;;;;;;9.00;5.93;;;20.50;63.10;;;;;;4997788;28;20213;-85
2022/05/07 12:08:49;;;;;;;13.77;6.93;;;20.80;63.50;;;;;;5016652;28;20252;-83
2022/05/07 12:11:15;;;;;;;9.98;5.90;;;21.00;62.80;;;;;;4981713;28;20272;-85
2022/05/07 12:13:40;;;;;;;10.23;6.25;;;21.20;62.30;;;;;;5015201;28;20189;-83
2022/05/07 12:18:51;;;;;;;7.72;5.13;;;21.40;60.60;;;;;;5014888;28;20243;-84
2022/05/07 12:21:17;;;;;;;5.75;4.25;;;21.50;56.90;;;;;;5014509;28;20185;-85
2022/05/07 12:31:52;;;;;;;7.05;5.10;;;21.10;55.90;;;;;;5014801;28;20228;-83
2022/05/07 12:34:19;;;;;;;6.05;4.90;;;20.70;57.70;;;;;;5013956;28;20260;-84
2022/05/07 12:36:44;;;;;;;8.07;5.45;;;20.40;58.30;;;;;;5014146;28;20188;-84
2022/05/07 12:39:10;;;;;;;6.65;4.75;;;20.30;59.30;;;;;;5014575;28;20295;-84
2022/05/07 12:41:39;;;;;;;8.57;5.20;;;20.00;59.80;;;;;;5015339;28;20173;-83
2022/05/07 12:44:05;;;;;;;7.90;5.63;;;19.90;60.00;;;;;;5014787;28;20181;-84
2022/05/07 12:46:30;;;;;;;7.55;5.20;;;20.10;60.40;;;;;;4997138;28;20186;-84
2022/05/07 12:48:56;;;;;;;8.75;5.45;;;20.20;59.30;;;;;;5015817;28;20182;-84
2022/05/07 12:51:25;;;;;;;8.18;5.32;;;20.20;59.80;;;;;;4998118;28;20232;-85
2022/05/07 12:53:54;;;;;;;10.98;4.95;;;20.30;59.30;;;;;;4997860;28;20185;-85
2022/05/07 12:56:20;;;;;;;7.18;5.07;;;;;;;;;;4981888;28;20649;-84
2022/05/07 12:58:47;;;;;;;6.97;5.32;;;;;;;;;;5015080;28;20714;-87
2022/05/07 13:01:15;;;;;;;7.07;4.78;;;20.80;57.90;;;;;;4995714;28;20217;-87
2022/05/07 13:03:41;;;;;;;6.88;5.18;;;20.70;57.80;;;;;;4996680;28;20201;-86
2022/05/07 13:06:07;;;;;;;6.43;4.45;;;;;;;;;;4997032;28;20304;-85
2022/05/07 13:08:33;;;;;;;8.60;4.60;;;;;;;;;;5013713;28;20257;-87
2022/05/07 13:10:59;;;;;;;5.80;4.88;;;;;;;;;;5013927;28;20189;-87
2022/05/07 13:13:25;;;;;;;8.57;5.63;;;;;;;;;;4979725;28;20548;-87
2022/05/07 13:15:51;;;;;;;13.05;9.07;;;21.30;57.70;;;;;;4996001;28;20669;-86
2022/05/07 13:18:18;;;;;;;12.05;6.00;;;;;;;;;;5013818;28;20197;-87
2022/05/07 13:20:44;;;;;;;9.50;7.03;;;;;;;;;;5013014;28;20185;-85
2022/05/07 13:23:12;;;;;;;7.60;6.38;;;;;;;;;;5013146;28;20192;-86
2022/05/07 13:25:38;;;;;;;6.45;4.55;;;;;;;;;;5011346;28;20185;-84